Terminal Aerodrome Forecast
Issued by NWS

Home | Current Version | Previous Version | Text Only | Print | Product List | Glossary On
Versions: 1 2 3 4 5 6 7 8 9 10 11 12 13 14 15 16 17 18 19
000
FTUS44 KEWX 061120
TAFSSF
TAF
KSSF 061120Z 0612/0712 15009KT P6SM BKN015
     FM061700 15013G23KT P6SM BKN050
     FM070500 14011KT P6SM BKN015=

USA.gov is the U.S. government's official web portal to all federal, state and local government web resources and services.